Time;durP1;ratioP1;P1;durP2;ratioP2;P2;SDS_P1;SDS_P2;PMS_P1;PMS_P2;Temp;Humidity;BMP_temperature;BMP_pressure;BME280_temperature;BME280_humidity;BME280_pressure;Samples;Min_cycle;Max_cycle;Signal;HPM_P1;HPM_P2
2021/12/10 00:00:51;;;;;;;11.10;9.20;;;2.90;99.90;;;;;;4995329;28;20188;-64
2021/12/10 00:03:34;;;;;;;9.80;8.90;;;2.80;99.90;;;;;;5012881;28;20239;-64
2021/12/10 00:06:18;;;;;;;11.00;9.90;;;2.80;99.90;;;;;;5013641;28;20160;-64
2021/12/10 00:08:48;;;;;;;15.57;9.77;;;2.80;99.90;;;;;;5013262;28;20255;-64
2021/12/10 00:11:19;;;;;;;10.47;9.27;;;2.80;99.90;;;;;;5013303;28;20171;-64
2021/12/10 00:13:47;;;;;;;10.27;9.03;;;2.80;99.90;;;;;;5013163;28;20204;-64
2021/12/10 00:16:15;;;;;;;9.93;8.90;;;2.80;99.90;;;;;;5013767;28;20214;-64
2021/12/10 00:18:52;;;;;;;12.50;9.73;;;2.80;99.90;;;;;;5016587;28;20207;-64
2021/12/10 00:21:19;;;;;;;11.33;9.60;;;2.80;99.90;;;;;;5016446;28;20194;-64
2021/12/10 00:23:49;;;;;;;11.70;9.93;;;2.70;99.90;;;;;;5016093;28;20191;-64
2021/12/10 00:26:15;;;;;;;14.97;9.93;;;2.70;99.90;;;;;;4998793;28;20182;-64
2021/12/10 00:28:41;;;;;;;11.77;9.70;;;2.70;99.90;;;;;;5016095;28;20295;-65
2021/12/10 00:31:29;;;;;;;12.63;9.33;;;2.70;99.90;;;;;;5016233;28;20180;-64
2021/12/10 00:33:59;;;;;;;12.10;10.90;;;2.70;99.90;;;;;;5015982;28;20286;-64
2021/12/10 00:36:25;;;;;;;11.13;10.03;;;2.60;99.90;;;;;;5016170;28;20179;-64
2021/12/10 00:38:51;;;;;;;11.00;9.70;;;2.60;99.90;;;;;;5016136;28;20179;-64
2021/12/10 00:41:18;;;;;;;10.10;9.10;;;2.60;99.90;;;;;;5015761;28;20226;-64
2021/12/10 00:43:45;;;;;;;11.07;9.97;;;2.60;99.90;;;;;;4998060;28;20238;-64
2021/12/10 00:46:11;;;;;;;10.27;9.20;;;2.60;99.90;;;;;;5015698;28;20176;-64
2021/12/10 00:48:37;;;;;;;10.57;9.03;;;2.60;99.90;;;;;;5015639;28;20183;-64
2021/12/10 00:51:05;;;;;;;10.57;9.47;;;2.60;99.90;;;;;;5015825;28;20196;-64
2021/12/10 00:53:31;;;;;;;10.63;8.60;;;2.60;99.90;;;;;;5015781;28;20200;-64
2021/12/10 00:55:57;;;;;;;11.13;9.20;;;2.60;99.90;;;;;;5015827;28;20183;-64
2021/12/10 00:58:25;;;;;;;10.70;9.17;;;2.60;99.90;;;;;;5015450;28;20184;-64
2021/12/10 01:00:55;;;;;;;10.87;9.00;;;2.60;99.90;;;;;;5015331;28;20196;-64
2021/12/10 01:03:30;;;;;;;12.53;9.10;;;2.60;99.90;;;;;;5015513;28;20200;-64
2021/12/10 01:06:01;;;;;;;12.83;9.03;;;2.60;99.90;;;;;;5015836;28;20160;-64
2021/12/10 01:08:28;;;;;;;10.50;9.23;;;2.60;99.90;;;;;;4997628;28;20168;-64
2021/12/10 01:11:05;;;;;;;11.60;8.80;;;2.60;99.90;;;;;;5015172;28;20207;-64
2021/12/10 01:13:34;;;;;;;10.23;9.03;;;2.60;99.90;;;;;;5015132;28;20199;-64
2021/12/10 01:24:50;;;;;;;11.80;10.10;;;2.60;99.90;;;;;;5016239;28;20158;-74
2021/12/10 01:27:29;;;;;;;9.80;8.80;;;2.60;99.90;;;;;;5014964;28;20156;-67
2021/12/10 01:29:57;;;;;;;12.43;9.07;;;2.60;99.90;;;;;;5015289;28;20518;-64
2021/12/10 01:32:27;;;;;;;11.23;9.90;;;2.60;99.90;;;;;;5014897;28;20216;-64
2021/12/10 01:34:54;;;;;;;9.77;8.77;;;2.60;99.90;;;;;;5015637;28;20263;-64
2021/12/10 01:37:20;;;;;;;10.63;9.63;;;2.60;99.90;;;;;;5015178;28;20263;-64
2021/12/10 01:39:46;;;;;;;9.83;8.93;;;2.70;99.90;;;;;;5014680;28;20242;-64
2021/12/10 01:44:55;;;;;;;12.67;10.13;;;2.70;99.90;;;;;;5015059;28;20251;-65
2021/12/10 01:47:30;;;;;;;10.60;9.53;;;2.70;99.90;;;;;;5014996;28;20168;-65
2021/12/10 01:49:56;;;;;;;11.63;9.90;;;2.80;99.90;;;;;;5015417;28;20159;-64
2021/12/10 01:52:22;;;;;;;11.57;9.50;;;2.80;99.90;;;;;;4996834;28;20196;-65
2021/12/10 01:54:52;;;;;;;11.97;10.10;;;2.80;99.90;;;;;;5014624;28;20267;-64
2021/12/10 01:57:20;;;;;;;13.07;9.73;;;2.80;99.90;;;;;;5014384;28;20176;-64
2021/12/10 01:59:47;;;;;;;10.80;9.60;;;2.90;99.90;;;;;;5014472;28;20184;-65
2021/12/10 02:02:22;;;;;;;10.80;9.70;;;2.90;99.90;;;;;;5014140;28;20630;-65
2021/12/10 02:04:48;;;;;;;12.17;10.07;;;3.00;99.90;;;;;;5014412;28;20175;-65
2021/12/10 02:07:19;;;;;;;13.50;9.77;;;2.90;99.90;;;;;;4996848;28;20200;-64
2021/12/10 02:09:46;;;;;;;12.83;9.13;;;3.00;99.90;;;;;;5014292;28;20634;-64
2021/12/10 02:12:12;;;;;;;13.03;10.00;;;3.00;99.90;;;;;;5014085;28;20591;-64
2021/12/10 02:14:38;;;;;;;13.17;10.10;;;2.90;99.90;;;;;;5014088;28;20176;-64
2021/12/10 02:17:05;;;;;;;10.53;9.43;;;3.00;99.90;;;;;;4996279;28;20191;-64
2021/12/10 02:19:31;;;;;;;12.97;9.63;;;3.00;99.90;;;;;;5013999;28;20172;-64
2021/12/10 02:21:58;;;;;;;11.00;9.90;;;3.00;99.90;;;;;;5013721;28;20191;-64
2021/12/10 02:24:24;;;;;;;10.27;9.20;;;3.00;99.90;;;;;;5014402;28;20186;-64
2021/12/10 02:27:00;;;;;;;10.23;9.00;;;3.00;99.90;;;;;;5013862;28;20179;-64
2021/12/10 02:29:29;;;;;;;10.60;9.20;;;3.10;99.90;;;;;;5014323;28;20650;-64
2021/12/10 02:31:56;;;;;;;10.60;9.30;;;3.10;99.90;;;;;;5013625;28;20176;-64
2021/12/10 02:34:24;;;;;;;9.27;8.37;;;3.10;99.90;;;;;;4996138;28;20210;-64
2021/12/10 02:36:50;;;;;;;9.43;8.43;;;3.10;99.90;;;;;;5013965;28;20538;-64
2021/12/10 02:39:20;;;;;;;12.10;8.80;;;3.10;99.90;;;;;;4996057;28;20176;-64
2021/12/10 02:41:46;;;;;;;10.90;8.30;;;3.10;99.90;;;;;;5014399;28;20191;-64
2021/12/10 02:44:16;;;;;;;9.27;8.27;;;3.10;99.90;;;;;;5013748;28;20769;-64
2021/12/10 02:46:42;;;;;;;10.50;9.00;;;3.10;99.90;;;;;;5013493;28;20179;-64
2021/12/10 02:49:10;;;;;;;11.40;8.50;;;3.10;99.90;;;;;;5013859;28;20539;-64
2021/12/10 02:51:37;;;;;;;10.53;8.60;;;3.10;99.90;;;;;;5013436;28;20175;-64
2021/12/10 02:54:05;;;;;;;10.13;8.60;;;3.10;99.90;;;;;;5013560;28;20205;-64
2021/12/10 02:56:31;;;;;;;9.83;8.10;;;3.10;99.90;;;;;;5013662;28;20177;-64
2021/12/10 02:58:59;;;;;;;11.20;8.60;;;3.10;99.90;;;;;;5013609;28;20200;-64
2021/12/10 03:01:33;;;;;;;12.97;8.53;;;3.10;99.90;;;;;;5013218;28;20230;-64
2021/12/10 03:04:00;;;;;;;9.40;8.13;;;3.20;99.90;;;;;;4995535;28;20238;-64
2021/12/10 03:06:28;;;;;;;9.07;8.13;;;3.20;99.90;;;;;;5013802;28;20172;-64
2021/12/10 03:08:55;;;;;;;11.70;7.47;;;3.20;99.90;;;;;;5013496;28;20262;-64
2021/12/10 03:11:26;;;;;;;10.33;7.83;;;3.30;99.90;;;;;;5013171;28;20255;-64
2021/12/10 03:13:52;;;;;;;9.03;7.47;;;3.30;99.90;;;;;;5013174;28;20667;-64
2021/12/10 03:16:18;;;;;;;10.97;7.73;;;3.40;99.90;;;;;;5013475;28;20223;-64
2021/12/10 03:18:45;;;;;;;9.37;7.40;;;3.40;99.90;;;;;;5013684;28;20168;-64
2021/12/10 03:21:12;;;;;;;10.00;7.80;;;3.40;99.90;;;;;;4995446;28;20238;-64
2021/12/10 03:23:42;;;;;;;11.40;7.57;;;3.50;99.90;;;;;;5013029;28;20643;-64
2021/12/10 03:26:10;;;;;;;8.40;7.53;;;3.50;99.90;;;;;;5013157;28;20179;-64
2021/12/10 03:28:39;;;;;;;8.13;7.03;;;3.60;99.90;;;;;;5013112;28;20176;-64
2021/12/10 03:31:06;;;;;;;12.43;7.50;;;3.60;99.90;;;;;;5013046;28;20191;-64
2021/12/10 03:33:32;;;;;;;7.80;7.10;;;3.50;99.90;;;;;;4995303;28;20223;-64
2021/12/10 03:35:58;;;;;;;8.27;7.47;;;3.50;99.90;;;;;;5013244;28;20293;-64
2021/12/10 03:38:25;;;;;;;7.67;6.77;;;3.50;99.90;;;;;;5013020;28;20180;-64
2021/12/10 03:40:52;;;;;;;10.53;7.10;;;3.50;99.90;;;;;;5013022;28;20228;-64
2021/12/10 03:43:18;;;;;;;9.30;7.07;;;3.50;99.90;;;;;;4995310;28;20192;-64
2021/12/10 03:45:48;;;;;;;7.47;6.50;;;3.60;99.90;;;;;;4995346;28;20295;-64
2021/12/10 03:48:18;;;;;;;15.80;7.60;;;3.60;99.90;;;;;;5012985;28;20179;-64
2021/12/10 03:50:46;;;;;;;9.23;6.77;;;3.60;99.90;;;;;;4995685;28;20177;-64
2021/12/10 03:53:13;;;;;;;15.30;7.10;;;3.60;99.90;;;;;;5016593;28;20192;-64
2021/12/10 03:55:41;;;;;;;9.27;6.50;;;3.60;99.90;;;;;;5016827;28;20176;-64
2021/12/10 03:58:07;;;;;;;9.13;6.83;;;3.60;99.90;;;;;;4999001;28;20176;-64
2021/12/10 04:00:39;;;;;;;9.33;6.63;;;3.50;99.90;;;;;;5016429;28;20539;-64
2021/12/10 04:03:05;;;;;;;6.67;6.07;;;3.40;99.90;;;;;;4998910;28;20218;-64
2021/12/10 04:05:32;;;;;;;8.13;6.80;;;3.40;99.90;;;;;;5016770;28;20172;-64
2021/12/10 04:07:58;;;;;;;10.53;6.27;;;3.40;99.90;;;;;;4998786;28;20230;-64
2021/12/10 04:10:24;;;;;;;9.00;6.70;;;3.40;99.90;;;;;;5016637;28;20168;-64
2021/12/10 04:12:50;;;;;;;14.63;7.03;;;3.40;99.90;;;;;;5016319;28;20257;-64
2021/12/10 04:15:21;;;;;;;8.80;6.50;;;3.30;99.90;;;;;;5016276;28;20255;-64
2021/12/10 04:17:49;;;;;;;7.23;6.27;;;3.30;99.90;;;;;;5016314;28;20164;-64
2021/12/10 04:20:16;;;;;;;10.50;6.23;;;3.20;99.90;;;;;;4998576;28;20341;-64
2021/12/10 04:22:46;;;;;;;9.17;6.83;;;3.10;99.90;;;;;;5016077;28;20204;-64
2021/12/10 04:25:14;;;;;;;12.03;6.23;;;3.10;99.90;;;;;;5016628;28;20183;-64
2021/12/10 04:27:42;;;;;;;7.07;6.37;;;3.10;99.90;;;;;;5016383;28;20172;-64
2021/12/10 04:30:10;;;;;;;7.20;6.50;;;3.10;99.90;;;;;;5016313;28;20168;-64
2021/12/10 04:32:36;;;;;;;7.37;6.27;;;3.10;99.90;;;;;;5016180;28;20203;-64
2021/12/10 04:35:03;;;;;;;6.90;6.30;;;3.00;99.90;;;;;;5015884;28;20183;-64
2021/12/10 04:37:29;;;;;;;9.67;5.97;;;3.00;99.90;;;;;;5016115;28;20539;-64
2021/12/10 04:39:55;;;;;;;10.20;6.30;;;3.00;99.90;;;;;;4998220;28;20176;-64
2021/12/10 04:42:24;;;;;;;10.63;6.03;;;3.00;99.90;;;;;;5015646;28;20555;-64
2021/12/10 04:44:55;;;;;;;6.37;5.77;;;3.00;99.90;;;;;;5015961;28;20242;-64
2021/12/10 04:47:21;;;;;;;10.07;6.30;;;3.00;99.90;;;;;;4998076;28;20581;-64
2021/12/10 04:49:47;;;;;;;7.60;5.90;;;3.00;99.90;;;;;;5015567;28;20200;-64
2021/12/10 04:52:13;;;;;;;6.40;5.80;;;2.90;99.90;;;;;;5015512;28;20662;-64
2021/12/10 04:54:39;;;;;;;7.33;5.97;;;2.90;99.90;;;;;;5015460;28;20186;-64
2021/12/10 04:57:06;;;;;;;6.10;5.60;;;2.90;99.90;;;;;;4998204;28;20611;-64
2021/12/10 04:59:34;;;;;;;10.07;6.23;;;2.80;99.90;;;;;;5016369;28;20225;-64
2021/12/10 05:02:03;;;;;;;7.83;6.00;;;2.80;99.90;;;;;;5016176;28;20192;-65
2021/12/10 05:04:30;;;;;;;7.13;5.87;;;2.80;99.90;;;;;;5015448;28;20685;-64
2021/12/10 05:06:58;;;;;;;8.97;6.37;;;2.80;99.90;;;;;;5015486;28;20254;-64
2021/12/10 05:09:24;;;;;;;14.33;8.40;;;2.70;99.90;;;;;;5015610;28;20164;-64
2021/12/10 05:11:50;;;;;;;11.20;7.27;;;2.80;99.90;;;;;;5015309;28;20202;-64
2021/12/10 05:14:17;;;;;;;8.13;6.67;;;2.80;99.90;;;;;;5015316;28;20262;-64
2021/12/10 05:16:45;;;;;;;10.83;7.37;;;2.70;99.90;;;;;;5015256;28;20180;-64
2021/12/10 05:19:19;;;;;;;13.07;7.20;;;2.70;99.90;;;;;;5015417;28;20172;-64
2021/12/10 05:21:46;;;;;;;8.53;6.13;;;2.70;99.90;;;;;;4997506;28;20192;-64
2021/12/10 05:24:12;;;;;;;8.53;6.13;;;2.60;99.90;;;;;;5015307;28;20270;-63
2021/12/10 05:26:38;;;;;;;10.83;6.13;;;2.50;99.90;;;;;;5015286;28;20210;-64
2021/12/10 05:29:07;;;;;;;8.73;6.17;;;2.50;99.90;;;;;;5015059;28;20212;-64
2021/12/10 05:31:40;;;;;;;8.13;5.90;;;2.50;99.90;;;;;;5015294;28;20156;-64
2021/12/10 05:34:06;;;;;;;8.33;6.20;;;2.50;99.90;;;;;;5015135;28;20195;-64
2021/12/10 05:36:32;;;;;;;8.00;6.20;;;2.40;99.90;;;;;;4997546;28;20594;-64
2021/12/10 05:38:58;;;;;;;7.80;6.10;;;2.40;99.90;;;;;;5015044;28;20225;-64
2021/12/10 05:41:24;;;;;;;8.73;6.10;;;2.40;99.90;;;;;;5014831;28;20589;-64
2021/12/10 05:43:50;;;;;;;7.40;6.03;;;2.50;99.90;;;;;;5014915;28;20192;-64
2021/12/10 05:46:17;;;;;;;11.87;6.33;;;2.50;99.90;;;;;;5014925;28;20208;-64
2021/12/10 05:48:45;;;;;;;6.30;5.80;;;2.50;99.90;;;;;;5015146;28;20176;-64
2021/12/10 05:51:12;;;;;;;6.53;5.93;;;2.50;99.90;;;;;;4997177;28;20190;-64
2021/12/10 05:53:38;;;;;;;8.70;6.40;;;2.50;99.90;;;;;;5015514;28;20196;-64
2021/12/10 05:56:04;;;;;;;6.47;5.97;;;2.50;99.90;;;;;;5014619;28;20226;-64
2021/12/10 05:58:30;;;;;;;12.23;6.50;;;2.50;99.90;;;;;;4996806;28;20612;-64
2021/12/10 06:01:03;;;;;;;7.03;6.40;;;2.40;99.90;;;;;;5014421;28;20206;-64
2021/12/10 06:03:34;;;;;;;6.70;6.10;;;2.40;99.90;;;;;;5014545;28;20210;-64
2021/12/10 06:06:01;;;;;;;6.73;6.13;;;2.40;99.90;;;;;;5014775;28;20161;-64
2021/12/10 06:08:27;;;;;;;8.73;7.27;;;2.40;99.90;;;;;;5014419;28;20164;-64
2021/12/10 06:10:56;;;;;;;14.60;7.70;;;2.40;99.90;;;;;;5014679;28;20187;-64
2021/12/10 06:13:22;;;;;;;13.93;7.37;;;2.40;99.90;;;;;;5014469;28;20262;-64
2021/12/10 06:15:47;;;;;;;13.00;7.67;;;2.40;99.90;;;;;;5014791;28;20646;-64
2021/12/10 06:18:14;;;;;;;13.17;7.70;;;2.40;99.90;;;;;;5014529;28;20179;-64
2021/12/10 06:20:44;;;;;;;7.73;6.80;;;2.40;99.90;;;;;;4996479;28;20233;-64
2021/12/10 06:23:10;;;;;;;9.03;7.83;;;2.50;99.90;;;;;;5014076;28;20191;-63
2021/12/10 06:25:36;;;;;;;12.93;8.40;;;2.50;99.90;;;;;;5014086;28;20639;-63
2021/12/10 06:28:03;;;;;;;11.03;8.90;;;2.50;99.90;;;;;;5014090;28;20546;-63
2021/12/10 06:30:33;;;;;;;8.43;7.07;;;2.50;99.90;;;;;;5014083;28;20172;-63
2021/12/10 06:33:01;;;;;;;9.80;6.80;;;2.40;99.90;;;;;;5014142;28;20537;-63
2021/12/10 06:35:30;;;;;;;11.13;7.13;;;2.40;99.90;;;;;;5014019;28;20517;-62
2021/12/10 06:37:57;;;;;;;12.67;7.47;;;2.40;99.90;;;;;;5013903;28;20226;-63
2021/12/10 06:40:27;;;;;;;7.47;6.70;;;2.50;99.90;;;;;;5013922;28;20176;-63
2021/12/10 06:42:53;;;;;;;10.47;8.20;;;2.40;99.90;;;;;;5013783;28;20211;-63
2021/12/10 06:45:28;;;;;;;8.37;6.37;;;2.50;99.90;;;;;;5013853;28;20168;-63
2021/12/10 06:47:58;;;;;;;11.83;7.43;;;2.50;99.90;;;;;;4996207;28;20178;-63
2021/12/10 06:50:26;;;;;;;12.17;7.90;;;2.40;99.90;;;;;;4996193;28;20172;-63
2021/12/10 06:52:54;;;;;;;14.13;8.03;;;2.50;99.90;;;;;;5013694;28;20302;-63
2021/12/10 06:55:20;;;;;;;11.73;7.70;;;2.50;99.90;;;;;;5013676;28;20179;-63
2021/12/10 06:57:47;;;;;;;13.67;7.70;;;2.50;99.90;;;;;;5013898;28;20175;-63
2021/12/10 07:00:41;;;;;;;10.40;6.43;;;2.50;99.90;;;;;;4996020;28;20176;-63
2021/12/10 07:03:09;;;;;;;13.13;6.77;;;2.50;99.90;;;;;;5005869;28;20255;-63
2021/12/10 07:05:36;;;;;;;9.03;6.87;;;2.40;99.90;;;;;;5013568;28;20175;-63
2021/12/10 07:08:01;;;;;;;12.17;7.00;;;2.40;99.90;;;;;;5014108;28;20258;-63
2021/12/10 07:10:27;;;;;;;8.13;6.80;;;2.40;99.90;;;;;;5013768;28;20255;-63
2021/12/10 07:12:53;;;;;;;9.13;6.90;;;2.40;99.90;;;;;;5013338;28;20234;-63
2021/12/10 07:15:20;;;;;;;10.40;6.80;;;2.40;99.90;;;;;;5013970;28;20190;-63
2021/12/10 07:17:49;;;;;;;8.27;7.47;;;2.30;99.90;;;;;;5013735;28;20203;-63
2021/12/10 07:20:17;;;;;;;8.90;6.93;;;2.30;99.90;;;;;;5013426;28;20180;-63
2021/12/10 07:22:43;;;;;;;7.03;6.33;;;2.30;99.90;;;;;;5013329;28;20214;-63
2021/12/10 07:25:09;;;;;;;7.30;6.40;;;2.30;99.90;;;;;;5013396;28;20538;-63
2021/12/10 07:27:35;;;;;;;11.87;6.57;;;2.30;99.90;;;;;;5016848;28;20179;-63
2021/12/10 07:30:04;;;;;;;6.80;6.20;;;2.30;99.90;;;;;;5017453;28;20176;-63
2021/12/10 07:32:29;;;;;;;12.00;6.67;;;2.30;99.90;;;;;;4999744;28;20258;-63
2021/12/10 07:34:55;;;;;;;6.80;6.20;;;2.30;99.90;;;;;;5017391;28;20643;-63
2021/12/10 07:37:22;;;;;;;9.90;6.57;;;2.30;99.90;;;;;;4999728;28;20186;-63
2021/12/10 07:39:47;;;;;;;7.63;6.57;;;2.30;99.90;;;;;;5017507;28;20567;-63
2021/12/10 07:42:13;;;;;;;6.83;6.23;;;2.30;99.90;;;;;;5018236;28;20198;-63
2021/12/10 07:44:39;;;;;;;7.00;6.27;;;2.30;99.90;;;;;;5017439;28;20508;-63
2021/12/10 07:47:09;;;;;;;8.33;7.00;;;2.30;99.90;;;;;;4999699;28;20200;-63
2021/12/10 07:49:37;;;;;;;8.23;6.63;;;2.30;99.90;;;;;;5017789;28;20488;-63
2021/12/10 07:52:07;;;;;;;11.23;6.53;;;2.40;99.90;;;;;;5016924;28;20183;-63
2021/12/10 07:54:33;;;;;;;7.10;6.60;;;2.40;99.90;;;;;;5016942;28;20184;-63
2021/12/10 07:56:58;;;;;;;6.70;6.20;;;2.40;99.90;;;;;;5017445;28;20531;-63
2021/12/10 07:59:24;;;;;;;7.50;6.60;;;2.40;99.90;;;;;;5016815;28;20187;-63
2021/12/10 08:01:50;;;;;;;12.00;6.90;;;2.50;99.90;;;;;;4999088;28;20203;-63
2021/12/10 08:04:16;;;;;;;7.17;6.00;;;2.50;99.90;;;;;;5016599;28;20199;-63
2021/12/10 08:06:42;;;;;;;6.80;6.20;;;2.60;99.90;;;;;;5016711;28;20175;-63
2021/12/10 08:09:10;;;;;;;8.70;6.80;;;2.60;99.90;;;;;;5016661;28;20168;-63
2021/12/10 08:11:37;;;;;;;8.70;6.30;;;2.60;99.90;;;;;;5016895;28;20180;-63
2021/12/10 08:14:03;;;;;;;8.10;6.50;;;2.70;99.90;;;;;;4999652;28;20282;-63
2021/12/10 08:16:30;;;;;;;6.80;6.20;;;2.80;99.90;;;;;;4998953;28;20203;-63
2021/12/10 08:18:57;;;;;;;8.00;6.27;;;2.80;99.90;;;;;;5016779;28;20172;-63
2021/12/10 08:21:24;;;;;;;7.87;6.67;;;2.80;99.90;;;;;;5016649;28;20198;-63
2021/12/10 08:23:52;;;;;;;9.27;6.70;;;2.80;99.90;;;;;;5016372;28;20279;-63
2021/12/10 08:26:17;;;;;;;11.67;6.60;;;2.80;99.90;;;;;;5016637;28;20172;-63
2021/12/10 08:28:43;;;;;;;9.03;6.17;;;2.80;99.90;;;;;;4998751;28;20182;-63
2021/12/10 08:31:10;;;;;;;10.20;5.90;;;2.80;99.90;;;;;;4998679;28;20187;-63
2021/12/10 08:33:36;;;;;;;8.73;6.23;;;2.90;99.90;;;;;;5016154;28;20213;-63
2021/12/10 08:36:06;;;;;;;6.27;5.77;;;2.90;99.90;;;;;;5016068;28;20713;-63
2021/12/10 08:38:33;;;;;;;7.83;6.60;;;2.90;99.90;;;;;;5016147;28;20164;-63
2021/12/10 08:41:05;;;;;;;14.20;6.33;;;2.90;99.90;;;;;;5015924;28;20643;-63
2021/12/10 08:43:32;;;;;;;7.70;5.90;;;2.90;99.90;;;;;;5016111;28;20318;-63
2021/12/10 08:46:00;;;;;;;7.57;5.93;;;3.00;99.90;;;;;;5016160;28;20631;-63
2021/12/10 08:48:28;;;;;;;6.90;6.23;;;3.00;99.90;;;;;;5016104;28;20504;-63
2021/12/10 08:50:56;;;;;;;6.73;6.03;;;3.00;99.90;;;;;;5015842;28;20256;-63
2021/12/10 08:53:22;;;;;;;6.10;5.50;;;3.00;99.90;;;;;;5015806;28;20192;-63
2021/12/10 08:55:50;;;;;;;6.30;5.80;;;3.10;99.90;;;;;;4998114;28;20665;-63
2021/12/10 08:58:17;;;;;;;8.10;6.13;;;3.10;99.90;;;;;;5015648;28;20298;-63
2021/12/10 09:00:47;;;;;;;10.77;6.10;;;3.10;99.90;;;;;;5015383;28;20635;-64
2021/12/10 09:03:14;;;;;;;11.47;6.37;;;3.10;99.90;;;;;;5015428;28;20294;-63
2021/12/10 09:05:40;;;;;;;6.20;5.73;;;3.20;99.90;;;;;;5015636;28;20210;-63
2021/12/10 09:08:06;;;;;;;7.53;5.73;;;3.20;99.90;;;;;;4997968;28;20172;-63
2021/12/10 09:10:37;;;;;;;6.90;6.30;;;3.30;99.90;;;;;;5015756;28;20200;-63
2021/12/10 09:13:09;;;;;;;6.30;5.70;;;3.30;99.90;;;;;;5015677;28;20238;-63
2021/12/10 09:15:35;;;;;;;6.90;6.27;;;3.30;99.90;;;;;;5015653;28;20180;-63
2021/12/10 09:18:01;;;;;;;11.37;6.37;;;3.30;99.90;;;;;;4997761;28;20180;-63
2021/12/10 09:20:36;;;;;;;6.20;5.60;;;3.40;99.90;;;;;;5015330;28;20172;-63
2021/12/10 09:23:02;;;;;;;6.17;5.60;;;3.40;99.90;;;;;;5015212;28;20215;-63
2021/12/10 09:25:28;;;;;;;6.07;5.63;;;3.40;99.90;;;;;;4997683;28;20219;-63
2021/12/10 09:27:55;;;;;;;7.27;5.60;;;3.50;99.90;;;;;;5015764;28;20175;-63
2021/12/10 09:30:23;;;;;;;6.27;5.70;;;3.50;99.90;;;;;;5015108;28;20545;-63
2021/12/10 09:32:49;;;;;;;8.70;6.20;;;3.60;99.90;;;;;;5015001;28;20270;-63
2021/12/10 09:35:18;;;;;;;7.07;5.97;;;3.70;99.90;;;;;;5014999;28;20184;-63
2021/12/10 09:37:43;;;;;;;8.60;6.13;;;3.70;99.90;;;;;;4997370;28;20188;-63
2021/12/10 09:40:15;;;;;;;6.67;5.87;;;3.80;99.90;;;;;;5015258;28;20179;-63
2021/12/10 09:42:43;;;;;;;7.57;5.70;;;3.80;99.90;;;;;;5015175;28;20204;-63
2021/12/10 09:45:10;;;;;;;9.17;6.07;;;3.90;99.90;;;;;;5014916;28;20677;-63
2021/12/10 09:47:37;;;;;;;6.87;5.40;;;4.00;99.90;;;;;;4997258;28;20266;-63
2021/12/10 09:50:05;;;;;;;7.43;6.10;;;4.10;99.90;;;;;;5014407;28;20227;-63
2021/12/10 09:52:31;;;;;;;7.13;5.67;;;4.20;99.90;;;;;;5014619;28;20278;-63
2021/12/10 09:54:57;;;;;;;6.30;5.70;;;4.30;99.90;;;;;;5014946;28;20203;-63
2021/12/10 09:57:28;;;;;;;7.63;5.63;;;4.40;99.90;;;;;;5014673;28;20643;-63
2021/12/10 09:59:55;;;;;;;7.80;6.10;;;4.50;99.90;;;;;;5014730;28;20164;-63
2021/12/10 10:02:24;;;;;;;6.80;5.90;;;4.60;99.90;;;;;;5014383;28;20223;-64
2021/12/10 10:04:51;;;;;;;6.80;5.67;;;4.70;99.90;;;;;;5015408;28;20517;-63
2021/12/10 10:07:29;;;;;;;7.07;5.33;;;4.80;99.90;;;;;;5014497;28;20172;-63
2021/12/10 10:10:05;;;;;;;7.57;5.60;;;4.90;99.90;;;;;;5014527;28;20156;-63
2021/12/10 10:12:36;;;;;;;6.53;5.50;;;5.00;99.90;;;;;;5014421;28;20199;-63
2021/12/10 10:15:10;;;;;;;9.33;5.80;;;5.10;99.90;;;;;;5014681;28;20164;-63
2021/12/10 10:17:36;;;;;;;6.73;5.23;;;5.30;99.90;;;;;;5014332;28;20642;-63
2021/12/10 10:20:05;;;;;;;6.23;5.60;;;5.30;99.90;;;;;;5014308;28;20167;-63
2021/12/10 10:22:31;;;;;;;5.80;5.20;;;5.30;99.90;;;;;;4996594;28;20738;-63
2021/12/10 10:24:57;;;;;;;5.70;5.30;;;5.40;99.90;;;;;;5014192;28;20323;-63
2021/12/10 10:27:28;;;;;;;6.17;5.47;;;5.40;99.90;;;;;;5014211;28;20168;-63
2021/12/10 10:30:06;;;;;;;5.60;5.07;;;5.50;99.90;;;;;;5014662;28;20153;-63
2021/12/10 10:32:34;;;;;;;5.53;5.03;;;5.50;99.90;;;;;;5014333;28;20644;-64
2021/12/10 10:35:07;;;;;;;8.13;5.30;;;5.60;99.90;;;;;;5014024;28;20558;-63
2021/12/10 10:37:33;;;;;;;6.23;5.00;;;5.70;99.90;;;;;;5014310;28;20164;-63
2021/12/10 10:40:01;;;;;;;6.67;5.27;;;5.80;99.90;;;;;;4996333;28;20183;-63
2021/12/10 10:42:30;;;;;;;5.57;5.17;;;5.80;99.90;;;;;;4996323;28;20586;-63
2021/12/10 10:45:04;;;;;;;6.70;5.43;;;5.90;99.90;;;;;;5013947;28;20264;-63
2021/12/10 10:47:30;;;;;;;6.10;5.27;;;5.90;99.90;;;;;;4996531;28;20536;-63
2021/12/10 10:49:59;;;;;;;8.13;6.07;;;5.90;99.90;;;;;;5014283;28;20583;-63
2021/12/10 10:52:34;;;;;;;5.87;5.17;;;6.00;99.90;;;;;;5013648;28;20200;-63
2021/12/10 10:55:25;;;;;;;10.47;5.83;;;6.00;99.90;;;;;;4996068;28;20175;-62
2021/12/10 10:58:03;;;;;;;8.60;5.40;;;6.00;99.90;;;;;;5014291;28;20180;-63
2021/12/10 11:00:45;;;;;;;5.83;5.03;;;6.10;99.90;;;;;;5013313;28;20700;-63
2021/12/10 11:03:15;;;;;;;6.63;5.13;;;6.10;99.90;;;;;;4995972;28;20616;-63
2021/12/10 11:05:48;;;;;;;8.50;5.30;;;6.10;99.90;;;;;;5014199;28;20550;-64
2021/12/10 11:08:33;;;;;;;7.57;5.20;;;6.20;99.90;;;;;;5013568;28;20175;-64
2021/12/10 11:11:28;;;;;;;5.40;4.90;;;6.20;99.90;;;;;;5013520;28;20168;-64
2021/12/10 11:14:08;;;;;;;9.00;5.27;;;6.20;99.90;;;;;;5011684;28;20207;-65
2021/12/10 11:16:37;;;;;;;7.73;5.33;;;6.10;99.90;;;;;;5013666;28;20160;-65
2021/12/10 11:19:13;;;;;;;5.43;4.90;;;5.90;99.90;;;;;;5013734;28;20565;-65
2021/12/10 11:21:44;;;;;;;5.77;5.10;;;5.90;99.90;;;;;;5013480;28;20219;-64
2021/12/10 11:24:45;;;;;;;5.50;5.00;;;5.90;99.90;;;;;;5013615;28;20196;-65
2021/12/10 11:27:18;;;;;;;5.47;5.07;;;5.90;99.90;;;;;;4966886;28;20187;-64
2021/12/10 11:30:09;;;;;;;6.20;5.00;;;5.80;99.90;;;;;;5013427;28;20175;-64
2021/12/10 11:32:43;;;;;;;7.17;4.73;;;5.90;99.90;;;;;;5013361;28;20196;-65
2021/12/10 11:35:18;;;;;;;7.20;4.97;;;5.90;99.90;;;;;;5013919;28;20164;-65
2021/12/10 11:37:55;;;;;;;6.03;4.90;;;5.90;99.90;;;;;;5013300;28;20159;-65
2021/12/10 11:40:27;;;;;;;9.33;4.80;;;5.90;99.90;;;;;;5013564;28;20218;-65
2021/12/10 11:43:00;;;;;;;5.53;5.13;;;6.00;99.90;;;;;;4995489;28;20669;-65
2021/12/10 11:45:35;;;;;;;5.50;5.00;;;6.00;99.90;;;;;;4995563;28;20283;-65
2021/12/10 11:48:12;;;;;;;5.20;4.63;;;6.20;99.90;;;;;;4996175;28;20168;-65
2021/12/10 11:50:45;;;;;;;6.07;5.20;;;6.30;99.90;;;;;;5013185;28;20215;-65
2021/12/10 11:53:15;;;;;;;5.73;5.20;;;6.30;99.90;;;;;;4995950;28;20211;-65
2021/12/10 11:56:20;;;;;;;5.17;4.77;;;6.20;99.90;;;;;;5013365;28;20168;-65
2021/12/10 11:59:04;;;;;;;5.80;5.00;;;6.30;99.90;;;;;;5013128;28;20226;-64
2021/12/10 12:01:31;;;;;;;4.90;4.50;;;6.20;99.90;;;;;;5013311;28;20234;-65
2021/12/10 12:03:57;;;;;;;5.40;4.90;;;6.30;99.90;;;;;;5012927;28;20249;-64
2021/12/10 12:06:23;;;;;;;5.43;5.03;;;6.40;99.90;;;;;;4995559;28;20182;-65
2021/12/10 12:08:48;;;;;;;5.10;4.70;;;6.40;99.90;;;;;;5013597;28;20250;-64
2021/12/10 12:11:14;;;;;;;6.10;5.00;;;6.40;99.90;;;;;;5013090;28;20175;-64
2021/12/10 12:13:50;;;;;;;5.03;4.67;;;6.50;99.90;;;;;;4998545;28;20195;-64
2021/12/10 12:16:17;;;;;;;5.23;4.73;;;6.50;99.90;;;;;;5016669;28;20166;-64
2021/12/10 12:18:50;;;;;;;6.23;4.93;;;6.50;99.90;;;;;;5016526;28;20666;-64
2021/12/10 12:27:06;;;;;;;5.10;4.57;;;6.70;99.90;;;;;;5017145;28;20163;-65
2021/12/10 12:29:37;;;;;;;4.73;4.37;;;6.80;99.90;;;;;;5016560;28;20178;-65
2021/12/10 12:32:10;;;;;;;5.27;4.57;;;7.00;99.90;;;;;;5016767;28;20583;-65
2021/12/10 12:34:35;;;;;;;14.00;4.90;;;7.20;99.90;;;;;;5017152;28;20185;-68
2021/12/10 12:37:08;;;;;;;5.13;4.70;;;7.30;99.90;;;;;;4998694;28;20194;-67
2021/12/10 12:39:49;;;;;;;8.20;4.27;;;7.30;99.90;;;;;;5016449;28;20706;-64
2021/12/10 12:42:35;;;;;;;5.67;4.40;;;7.50;99.90;;;;;;4998658;28;20202;-64
2021/12/10 12:45:12;;;;;;;6.43;4.33;;;7.50;99.90;;;;;;5016365;28;20156;-64
2021/12/10 12:47:44;;;;;;;5.50;4.57;;;7.50;99.90;;;;;;5016314;28;20188;-64
2021/12/10 12:50:16;;;;;;;4.77;4.10;;;7.50;99.90;;;;;;5016361;28;20160;-64
2021/12/10 12:52:41;;;;;;;4.57;4.17;;;7.50;99.90;;;;;;5015858;28;20196;-64
2021/12/10 12:55:32;;;;;;;6.10;4.57;;;7.60;99.90;;;;;;5015963;28;20179;-65
2021/12/10 12:58:10;;;;;;;4.73;4.33;;;7.50;99.90;;;;;;5016132;28;20220;-65
2021/12/10 13:00:42;;;;;;;4.60;4.20;;;7.50;99.90;;;;;;5015871;28;20160;-64
2021/12/10 13:03:15;;;;;;;5.13;4.30;;;7.30;99.90;;;;;;5015494;28;20216;-65
2021/12/10 13:05:49;;;;;;;7.07;4.30;;;7.20;99.90;;;;;;5016040;28;20226;-65
2021/12/10 13:08:19;;;;;;;4.60;4.20;;;7.20;99.90;;;;;;5015932;28;20156;-64
2021/12/10 13:10:52;;;;;;;8.17;4.30;;;7.20;99.90;;;;;;5015905;28;20167;-64
2021/12/10 13:13:32;;;;;;;5.03;4.20;;;7.10;99.90;;;;;;4997858;28;20200;-64
2021/12/10 13:15:58;;;;;;;7.20;4.40;;;7.00;99.90;;;;;;5015757;28;20152;-64
2021/12/10 13:18:24;;;;;;;5.00;4.50;;;6.90;99.90;;;;;;5015997;28;20313;-64
2021/12/10 13:20:53;;;;;;;5.03;4.47;;;6.80;99.90;;;;;;5015397;28;20647;-64